AirNav   Everest Fuels
 
 1210 users online  

0TA0 HCA Houston Healthcare Mainland Heliport
Lamarque/Texas City, Texas, USA

GOING TO LAMARQUE/TEXAS CITY?


FAA INFORMATION EFFECTIVE 25 MARCH 2021

Location

FAA Identifier: 0TA0
Lat/Long: 29-23-42.0900N 094-59-10.8900W
29-23.701500N 094-59.181500W
29.3950250,-94.9863583
(estimated)
Elevation: 16 ft. / 5 m (estimated)
Variation: 06E (1985)
From city: 2 miles N of central business district of the associated city
Time zone: UTC -5 (UTC -6 during Standard Time)
Zip code: 77591

Heliport Operations

Heliport use: Private use, MEDICAL.
Activation date: 01/1968
Control tower: no
ARTCC: HOUSTON CENTER
FSS: MONTGOMERY COUNTY FLIGHT SERVICE STATION
Attendance: UNATNDD
Wind indicator: yes
Segmented circle: no

Heliport Communications

WX ASOS at GLS (10 nm SE): 119.275 (409-740-9248)
WX ASOS at LVJ (15 nm NW): 118.525 (281-992-1853)
WX AWOS-3 at EFD (16 nm NW): 135.575 (713-847-4430)
WX AWOS-3PT at T41 (17 nm N): 120.275 (281-471-2206)

Nearby radio navigation aids

VOR radial/distance  VOR name  Freq  Var
VUHr315/9.8SCHOLES VOR/DME113.0006E
MHFr227/15.4TRINITY VOR/DME113.6007E
IAHr146/38.6HUMBLE VORTAC116.6005E

Heliport Services

Airframe service: NONE
Powerplant service: NONE

Runway Information

Helipad H1

Dimensions: 45 x 45 ft. / 14 x 14 m
Surface: concrete
36000 LBS.
Latitude: 29-23.701500N
Longitude: 094-59.181500W
Elevation: 16.0 ft.
Traffic pattern: leftleft

Heliport Ownership and Management from official FAA records

Ownership: Privately-owned
Owner: HCA HOUSTON HEALTHCARE MAINLAND
PO BOX 2756
TEXAS CITY, TX 77592-2756
Phone 409-938-5000
Manager: CHRIS LGUESS
PO BOX 2756
TEXAS CITY, TX 77592-2756
Phone 409-938-5000

Additional Remarks

FOR CD CTC HOUSTON ARTCC AT 281-230-5622.

Instrument Procedures

There are no published instrument procedures at 0TA0.

Some nearby airports with instrument procedures:

KGLS - Scholes International Airport at Galveston (10 nm SE)
KLVJ - Pearland Regional Airport (15 nm NW)
KEFD - Ellington Airport (16 nm NW)
T41 - La Porte Municipal Airport (17 nm N)
KHOU - William P Hobby Airport (21 nm NW)
 
Loc | Ops | Rwys | IFR | FBO | Links
Com | Nav | Svcs | Stats | Notes
Area around 0TA0 (HCA Houston Healthcare Mainland Heliport)
 
Road maps at: MapQuest Bing Google
 
Aerial photo
No photo
 
Sectional chart

 
Airport distance calculator
Flying to HCA Houston Healthcare Mainland Heliport? Find the distance to fly.

From to 0TA0

Sunrise and sunset
Times for 12-Apr-2021
 Local
(UTC-5)
 Zulu
(UTC)
Morning civil twilight06:3411:34
Sunrise06:5811:58
Sunset19:4400:44
Evening civil twilight20:0801:08

Current date and time
Zulu (UTC)  12-Apr-2021 23:36:30
Local (UTC-5)  12-Apr-2021 18:36:30
 
METAR
KGLS 
10nm SE 
122252Z AUTO 10011KT 10SM OVC031 24/18 A2982 RMK AO2 SLP098 T02390183
KEFD 
15nm NW 
122250Z 10012KT 10SM FEW030 25/19 A2981
KLVJ 
16nm NW 
122253Z AUTO 12011KT 9SM BKN032 26/19 A2982 RMK AO2 SLP097 T02610189
KT41 
17nm N 
122315Z AUTO 11011G18KT 10SM CLR 24/19 A2983 RMK AO2 T02420190
TAF
KGLS 
10nm SE 
122211Z 1222/1318 10014KT P6SM BKN035 TEMPO 1223/1303 BKN030 FM130300 11010KT P6SM SCT015 OVC025 FM130700 10009KT 5SM BR OVC008 FM131600 11008KT P6SM FEW009 BKN015
KEFD 
15nm NW 
122000Z 1220/1402 13012G18KT 9999 BKN030 QNH2980INS BECMG 1302/1303 12012KT 9999 OVC012 QNH2985INS BECMG 1308/1309 12015G25KT 4800 -SHRA OVC008 QNH2985INS BECMG 1320/1321 14012G18KT 9999 NSW BKN025 QNH2987INS BECMG 1323/1324 15012KT 9999 OVC015 QNH2988INS TX27/1320Z TN21/1306Z
NOTAMs
Click for the latest NOTAMs
NOTAMs are issued by the DoD/FAA and will open in a separate window not controlled by AirNav.

 

 
 

Would you like to see your business listed on this page?

 If your business provides an interesting product or service to pilots, flight crews, aircraft, or users of the HCA Houston Healthcare Mainland Heliport, you should consider listing it here.  To start the listing process, click on the button below
 
Add a business
 

Other Pages about HCA Houston Healthcare Mainland Heliport

Update a link
 
Copyright © AirNav, LLC. All rights reserved. Privacy Policy  Contact